sensor_id;sensor_type;location;lat;lon;timestamp;P1;durP1;ratioP1;P2;durP2;ratioP2
44955;SDS011;30686;52.512;-1.188;2022-10-13T11:13:15;9.80;;;2.63;;
44955;SDS011;30686;52.512;-1.188;2022-10-13T11:15:42;5.72;;;2.53;;
44955;SDS011;30686;52.512;-1.188;2022-10-13T11:20:57;5.47;;;2.30;;
44955;SDS011;30686;52.512;-1.188;2022-10-13T11:25:49;4.45;;;1.70;;
44955;SDS011;30686;52.512;-1.188;2022-10-13T11:30:51;13.50;;;3.25;;
44955;SDS011;30686;52.512;-1.188;2022-10-13T11:38:46;7.50;;;2.28;;
44955;SDS011;30686;52.512;-1.188;2022-10-13T11:41:19;10.13;;;3.20;;
44955;SDS011;30686;52.512;-1.188;2022-10-13T11:47:19;7.05;;;2.30;;
44955;SDS011;30686;52.512;-1.188;2022-10-13T11:57:21;6.75;;;1.98;;
44955;SDS011;30686;52.512;-1.188;2022-10-13T11:59:49;11.77;;;2.97;;
44955;SDS011;30686;52.512;-1.188;2022-10-13T12:02:18;6.13;;;1.83;;
44955;SDS011;30686;52.512;-1.188;2022-10-13T12:07:34;7.03;;;2.00;;
44955;SDS011;30686;52.512;-1.188;2022-10-13T12:10:01;14.48;;;2.17;;
44955;SDS011;30686;52.512;-1.188;2022-10-13T12:12:28;7.45;;;2.05;;
44955;SDS011;30686;52.512;-1.188;2022-10-13T12:14:55;9.50;;;2.08;;
44955;SDS011;30686;52.512;-1.188;2022-10-13T12:19:51;6.97;;;2.40;;
44955;SDS011;30686;52.512;-1.188;2022-10-13T12:22:18;8.25;;;2.45;;
44955;SDS011;30686;52.512;-1.188;2022-10-13T12:25:05;8.95;;;2.70;;
44955;SDS011;30686;52.512;-1.188;2022-10-13T12:27:32;9.20;;;2.45;;
44955;SDS011;30686;52.512;-1.188;2022-10-13T12:30:18;8.15;;;2.72;;
44955;SDS011;30686;52.512;-1.188;2022-10-13T12:32:47;6.63;;;2.92;;
44955;SDS011;30686;52.512;-1.188;2022-10-13T12:35:16;5.00;;;2.30;;
44955;SDS011;30686;52.512;-1.188;2022-10-13T12:37:42;7.20;;;2.58;;
44955;SDS011;30686;52.512;-1.188;2022-10-13T12:40:11;8.90;;;2.67;;
44955;SDS011;30686;52.512;-1.188;2022-10-13T12:42:38;12.70;;;2.78;;
44955;SDS011;30686;52.512;-1.188;2022-10-13T12:45:05;8.70;;;2.55;;
44955;SDS011;30686;52.512;-1.188;2022-10-13T12:47:35;6.30;;;2.10;;
44955;SDS011;30686;52.512;-1.188;2022-10-13T12:52:52;6.00;;;2.00;;
44955;SDS011;30686;52.512;-1.188;2022-10-13T12:55:19;7.10;;;2.38;;
44955;SDS011;30686;52.512;-1.188;2022-10-13T12:57:47;9.73;;;2.10;;
44955;SDS011;30686;52.512;-1.188;2022-10-13T13:00:26;12.27;;;2.13;;
44955;SDS011;30686;52.512;-1.188;2022-10-13T13:02:53;8.65;;;2.67;;
44955;SDS011;30686;52.512;-1.188;2022-10-13T13:08:03;7.13;;;2.42;;
44955;SDS011;30686;52.512;-1.188;2022-10-13T13:10:30;11.25;;;2.80;;
44955;SDS011;30686;52.512;-1.188;2022-10-13T13:13:00;9.52;;;3.30;;
44955;SDS011;30686;52.512;-1.188;2022-10-13T13:15:37;11.65;;;2.95;;
44955;SDS011;30686;52.512;-1.188;2022-10-13T13:21:08;7.65;;;2.10;;
44955;SDS011;30686;52.512;-1.188;2022-10-13T13:23:34;5.28;;;1.80;;
44955;SDS011;30686;52.512;-1.188;2022-10-13T13:28:27;18.83;;;2.30;;
44955;SDS011;30686;52.512;-1.188;2022-10-13T13:30:54;9.15;;;1.92;;
44955;SDS011;30686;52.512;-1.188;2022-10-13T13:33:20;7.10;;;2.10;;
44955;SDS011;30686;52.512;-1.188;2022-10-13T13:35:47;7.22;;;2.22;;
44955;SDS011;30686;52.512;-1.188;2022-10-13T13:38:13;8.13;;;2.05;;
44955;SDS011;30686;52.512;-1.188;2022-10-13T13:40:39;6.97;;;3.28;;
44955;SDS011;30686;52.512;-1.188;2022-10-13T13:43:06;13.35;;;3.45;;
44955;SDS011;30686;52.512;-1.188;2022-10-13T13:45:33;10.50;;;2.08;;
44955;SDS011;30686;52.512;-1.188;2022-10-13T13:47:59;7.32;;;2.13;;
44955;SDS011;30686;52.512;-1.188;2022-10-13T13:50:27;8.02;;;2.00;;
44955;SDS011;30686;52.512;-1.188;2022-10-13T13:52:53;10.13;;;3.25;;
44955;SDS011;30686;52.512;-1.188;2022-10-13T13:55:19;7.22;;;3.10;;
44955;SDS011;30686;52.512;-1.188;2022-10-13T13:57:47;9.27;;;3.10;;
44955;SDS011;30686;52.512;-1.188;2022-10-13T14:00:13;11.45;;;3.10;;
44955;SDS011;30686;52.512;-1.188;2022-10-13T14:02:40;11.10;;;2.85;;
44955;SDS011;30686;52.512;-1.188;2022-10-13T14:05:07;11.25;;;2.85;;
44955;SDS011;30686;52.512;-1.188;2022-10-13T14:07:34;8.80;;;2.20;;
44955;SDS011;30686;52.512;-1.188;2022-10-13T14:10:00;6.75;;;2.20;;
44955;SDS011;30686;52.512;-1.188;2022-10-13T14:12:28;8.90;;;2.42;;
44955;SDS011;30686;52.512;-1.188;2022-10-13T14:14:54;6.75;;;2.15;;
44955;SDS011;30686;52.512;-1.188;2022-10-13T14:17:21;10.55;;;2.75;;
44955;SDS011;30686;52.512;-1.188;2022-10-13T14:19:47;11.55;;;2.20;;
44955;SDS011;30686;52.512;-1.188;2022-10-13T14:22:13;9.40;;;2.20;;
44955;SDS011;30686;52.512;-1.188;2022-10-13T14:24:40;10.98;;;3.13;;
44955;SDS011;30686;52.512;-1.188;2022-10-13T14:27:06;7.25;;;2.55;;
44955;SDS011;30686;52.512;-1.188;2022-10-13T14:29:33;6.13;;;1.95;;
44955;SDS011;30686;52.512;-1.188;2022-10-13T14:31:59;15.70;;;2.30;;
44955;SDS011;30686;52.512;-1.188;2022-10-13T14:34:25;7.65;;;2.22;;
44955;SDS011;30686;52.512;-1.188;2022-10-13T14:36:52;8.40;;;2.55;;
44955;SDS011;30686;52.512;-1.188;2022-10-13T14:39:18;10.80;;;2.90;;
44955;SDS011;30686;52.512;-1.188;2022-10-13T14:41:44;10.23;;;2.40;;
44955;SDS011;30686;52.512;-1.188;2022-10-13T14:44:11;10.10;;;2.67;;
44955;SDS011;30686;52.512;-1.188;2022-10-13T14:46:38;6.65;;;2.22;;
44955;SDS011;30686;52.512;-1.188;2022-10-13T14:49:04;8.43;;;2.88;;
44955;SDS011;30686;52.512;-1.188;2022-10-13T14:51:31;13.00;;;2.50;;
44955;SDS011;30686;52.512;-1.188;2022-10-13T14:53:57;6.72;;;2.20;;
44955;SDS011;30686;52.512;-1.188;2022-10-13T14:56:26;11.05;;;2.65;;
44955;SDS011;30686;52.512;-1.188;2022-10-13T14:58:56;8.13;;;2.85;;
44955;SDS011;30686;52.512;-1.188;2022-10-13T15:01:22;9.38;;;3.63;;
44955;SDS011;30686;52.512;-1.188;2022-10-13T15:03:49;6.60;;;2.90;;
44955;SDS011;30686;52.512;-1.188;2022-10-13T15:06:16;11.82;;;2.95;;
44955;SDS011;30686;52.512;-1.188;2022-10-13T15:08:42;10.40;;;2.88;;
44955;SDS011;30686;52.512;-1.188;2022-10-13T15:11:09;10.05;;;3.33;;
44955;SDS011;30686;52.512;-1.188;2022-10-13T15:13:36;9.68;;;4.97;;
44955;SDS011;30686;52.512;-1.188;2022-10-13T15:16:03;8.25;;;2.97;;
44955;SDS011;30686;52.512;-1.188;2022-10-13T15:18:29;8.13;;;2.65;;
44955;SDS011;30686;52.512;-1.188;2022-10-13T15:20:56;6.15;;;2.50;;
44955;SDS011;30686;52.512;-1.188;2022-10-13T15:23:22;11.23;;;2.65;;
44955;SDS011;30686;52.512;-1.188;2022-10-13T15:25:49;8.25;;;2.85;;
44955;SDS011;30686;52.512;-1.188;2022-10-13T15:28:16;8.82;;;2.03;;
44955;SDS011;30686;52.512;-1.188;2022-10-13T15:30:42;7.97;;;2.35;;
44955;SDS011;30686;52.512;-1.188;2022-10-13T15:33:09;5.68;;;2.00;;
44955;SDS011;30686;52.512;-1.188;2022-10-13T15:35:35;7.70;;;2.15;;
44955;SDS011;30686;52.512;-1.188;2022-10-13T15:38:01;6.60;;;2.10;;
44955;SDS011;30686;52.512;-1.188;2022-10-13T15:40:28;6.20;;;1.90;;
44955;SDS011;30686;52.512;-1.188;2022-10-13T15:42:58;7.65;;;2.40;;
44955;SDS011;30686;52.512;-1.188;2022-10-13T15:45:24;9.20;;;2.67;;
44955;SDS011;30686;52.512;-1.188;2022-10-13T15:47:51;6.85;;;2.05;;
44955;SDS011;30686;52.512;-1.188;2022-10-13T15:50:17;7.32;;;2.35;;
44955;SDS011;30686;52.512;-1.188;2022-10-13T15:52:44;5.90;;;2.38;;
44955;SDS011;30686;52.512;-1.188;2022-10-13T15:55:10;10.10;;;2.50;;
44955;SDS011;30686;52.512;-1.188;2022-10-13T15:57:37;7.47;;;2.15;;
44955;SDS011;30686;52.512;-1.188;2022-10-13T16:00:04;7.03;;;2.30;;
44955;SDS011;30686;52.512;-1.188;2022-10-13T16:02:30;11.35;;;2.75;;
44955;SDS011;30686;52.512;-1.188;2022-10-13T16:04:56;7.95;;;3.33;;
44955;SDS011;30686;52.512;-1.188;2022-10-13T16:07:32;7.97;;;2.78;;
44955;SDS011;30686;52.512;-1.188;2022-10-13T16:09:58;5.78;;;2.40;;
44955;SDS011;30686;52.512;-1.188;2022-10-13T16:12:26;12.30;;;2.60;;
44955;SDS011;30686;52.512;-1.188;2022-10-13T16:14:52;10.70;;;2.83;;
44955;SDS011;30686;52.512;-1.188;2022-10-13T16:17:18;7.03;;;2.20;;
44955;SDS011;30686;52.512;-1.188;2022-10-13T16:19:45;8.30;;;2.45;;
44955;SDS011;30686;52.512;-1.188;2022-10-13T16:22:11;9.13;;;2.55;;
44955;SDS011;30686;52.512;-1.188;2022-10-13T16:24:38;9.10;;;2.95;;
44955;SDS011;30686;52.512;-1.188;2022-10-13T16:27:04;8.10;;;2.75;;
44955;SDS011;30686;52.512;-1.188;2022-10-13T16:29:30;9.40;;;2.78;;
44955;SDS011;30686;52.512;-1.188;2022-10-13T16:31:56;8.70;;;2.90;;
44955;SDS011;30686;52.512;-1.188;2022-10-13T16:34:24;11.60;;;3.22;;
44955;SDS011;30686;52.512;-1.188;2022-10-13T16:36:51;6.38;;;2.75;;
44955;SDS011;30686;52.512;-1.188;2022-10-13T16:39:17;19.05;;;2.90;;
44955;SDS011;30686;52.512;-1.188;2022-10-13T16:41:43;7.60;;;3.17;;
44955;SDS011;30686;52.512;-1.188;2022-10-13T16:44:11;7.40;;;2.90;;
44955;SDS011;30686;52.512;-1.188;2022-10-13T16:46:37;13.82;;;3.40;;
44955;SDS011;30686;52.512;-1.188;2022-10-13T16:49:04;12.18;;;2.97;;
44955;SDS011;30686;52.512;-1.188;2022-10-13T16:51:30;9.93;;;4.47;;
44955;SDS011;30686;52.512;-1.188;2022-10-13T16:53:57;9.57;;;3.30;;
44955;SDS011;30686;52.512;-1.188;2022-10-13T16:56:24;6.45;;;2.83;;
44955;SDS011;30686;52.512;-1.188;2022-10-13T16:58:52;8.88;;;3.33;;
44955;SDS011;30686;52.512;-1.188;2022-10-13T17:01:19;9.90;;;3.45;;
44955;SDS011;30686;52.512;-1.188;2022-10-13T17:03:46;12.68;;;3.58;;
44955;SDS011;30686;52.512;-1.188;2022-10-13T17:06:12;8.63;;;3.35;;
44955;SDS011;30686;52.512;-1.188;2022-10-13T17:08:39;7.43;;;2.80;;
44955;SDS011;30686;52.512;-1.188;2022-10-13T17:11:06;10.88;;;3.38;;
44955;SDS011;30686;52.512;-1.188;2022-10-13T17:13:33;14.38;;;3.30;;
44955;SDS011;30686;52.512;-1.188;2022-10-13T17:16:01;6.20;;;3.28;;
44955;SDS011;30686;52.512;-1.188;2022-10-13T17:18:28;5.63;;;2.83;;
44955;SDS011;30686;52.512;-1.188;2022-10-13T17:20:55;11.10;;;3.95;;
44955;SDS011;30686;52.512;-1.188;2022-10-13T17:23:22;14.27;;;4.47;;
44955;SDS011;30686;52.512;-1.188;2022-10-13T17:25:49;13.63;;;4.07;;
44955;SDS011;30686;52.512;-1.188;2022-10-13T17:28:15;11.05;;;4.95;;
44955;SDS011;30686;52.512;-1.188;2022-10-13T17:30:42;15.07;;;4.53;;
44955;SDS011;30686;52.512;-1.188;2022-10-13T17:33:08;12.48;;;4.72;;
44955;SDS011;30686;52.512;-1.188;2022-10-13T17:35:37;15.05;;;5.93;;
44955;SDS011;30686;52.512;-1.188;2022-10-13T17:38:03;10.40;;;5.47;;
44955;SDS011;30686;52.512;-1.188;2022-10-13T17:40:34;15.05;;;5.20;;
44955;SDS011;30686;52.512;-1.188;2022-10-13T17:43:00;13.27;;;4.95;;
44955;SDS011;30686;52.512;-1.188;2022-10-13T17:45:27;15.05;;;5.15;;
44955;SDS011;30686;52.512;-1.188;2022-10-13T17:47:53;11.63;;;5.32;;
44955;SDS011;30686;52.512;-1.188;2022-10-13T17:50:19;10.60;;;4.53;;
44955;SDS011;30686;52.512;-1.188;2022-10-13T17:52:46;12.23;;;4.82;;
44955;SDS011;30686;52.512;-1.188;2022-10-13T17:55:12;7.97;;;3.95;;
44955;SDS011;30686;52.512;-1.188;2022-10-13T17:57:38;12.73;;;4.97;;
44955;SDS011;30686;52.512;-1.188;2022-10-13T18:00:04;13.05;;;3.72;;
44955;SDS011;30686;52.512;-1.188;2022-10-13T18:02:31;12.57;;;3.67;;
44955;SDS011;30686;52.512;-1.188;2022-10-13T18:04:57;9.32;;;3.88;;
44955;SDS011;30686;52.512;-1.188;2022-10-13T18:07:23;10.32;;;4.28;;
44955;SDS011;30686;52.512;-1.188;2022-10-13T18:09:50;12.20;;;4.18;;
44955;SDS011;30686;52.512;-1.188;2022-10-13T18:12:17;12.95;;;3.92;;
44955;SDS011;30686;52.512;-1.188;2022-10-13T18:14:43;21.30;;;4.80;;
44955;SDS011;30686;52.512;-1.188;2022-10-13T18:17:09;14.27;;;4.53;;
44955;SDS011;30686;52.512;-1.188;2022-10-13T18:19:35;7.45;;;4.32;;
44955;SDS011;30686;52.512;-1.188;2022-10-13T18:22:02;12.05;;;4.63;;
44955;SDS011;30686;52.512;-1.188;2022-10-13T18:24:28;13.82;;;5.97;;
44955;SDS011;30686;52.512;-1.188;2022-10-13T18:26:54;11.20;;;4.97;;
44955;SDS011;30686;52.512;-1.188;2022-10-13T18:29:20;13.60;;;5.43;;
44955;SDS011;30686;52.512;-1.188;2022-10-13T18:31:46;15.68;;;4.38;;
44955;SDS011;30686;52.512;-1.188;2022-10-13T18:34:14;11.57;;;4.65;;
44955;SDS011;30686;52.512;-1.188;2022-10-13T18:36:47;11.75;;;4.63;;
44955;SDS011;30686;52.512;-1.188;2022-10-13T18:39:15;11.05;;;4.40;;
44955;SDS011;30686;52.512;-1.188;2022-10-13T18:41:42;15.38;;;4.80;;
44955;SDS011;30686;52.512;-1.188;2022-10-13T18:44:09;10.32;;;4.60;;
44955;SDS011;30686;52.512;-1.188;2022-10-13T18:46:36;8.80;;;3.90;;
44955;SDS011;30686;52.512;-1.188;2022-10-13T18:49:03;11.25;;;4.35;;
44955;SDS011;30686;52.512;-1.188;2022-10-13T18:51:29;15.80;;;4.75;;
44955;SDS011;30686;52.512;-1.188;2022-10-13T18:53:57;9.93;;;4.53;;
44955;SDS011;30686;52.512;-1.188;2022-10-13T18:56:24;13.70;;;4.63;;
44955;SDS011;30686;52.512;-1.188;2022-10-13T18:58:53;11.45;;;5.22;;
44955;SDS011;30686;52.512;-1.188;2022-10-13T19:01:20;11.65;;;5.00;;
44955;SDS011;30686;52.512;-1.188;2022-10-13T19:03:46;12.43;;;6.05;;
44955;SDS011;30686;52.512;-1.188;2022-10-13T19:06:14;9.95;;;4.95;;
44955;SDS011;30686;52.512;-1.188;2022-10-13T19:08:41;12.10;;;4.10;;
44955;SDS011;30686;52.512;-1.188;2022-10-13T19:11:15;10.27;;;4.25;;
44955;SDS011;30686;52.512;-1.188;2022-10-13T19:13:42;10.52;;;4.10;;
44955;SDS011;30686;52.512;-1.188;2022-10-13T19:16:09;11.60;;;4.75;;
44955;SDS011;30686;52.512;-1.188;2022-10-13T19:18:36;7.60;;;4.93;;
44955;SDS011;30686;52.512;-1.188;2022-10-13T19:21:02;8.35;;;4.88;;
44955;SDS011;30686;52.512;-1.188;2022-10-13T19:23:29;10.60;;;4.15;;
44955;SDS011;30686;52.512;-1.188;2022-10-13T19:25:55;10.35;;;4.78;;
44955;SDS011;30686;52.512;-1.188;2022-10-13T19:28:21;16.67;;;7.15;;
44955;SDS011;30686;52.512;-1.188;2022-10-13T19:30:48;10.15;;;4.35;;
44955;SDS011;30686;52.512;-1.188;2022-10-13T19:33:15;12.77;;;4.88;;
44955;SDS011;30686;52.512;-1.188;2022-10-13T19:35:42;19.40;;;5.78;;
44955;SDS011;30686;52.512;-1.188;2022-10-13T19:38:09;12.48;;;4.53;;
44955;SDS011;30686;52.512;-1.188;2022-10-13T19:40:35;12.98;;;5.03;;
44955;SDS011;30686;52.512;-1.188;2022-10-13T19:43:01;14.85;;;5.35;;
44955;SDS011;30686;52.512;-1.188;2022-10-13T19:45:28;16.20;;;4.75;;
44955;SDS011;30686;52.512;-1.188;2022-10-13T19:47:54;13.85;;;4.80;;
44955;SDS011;30686;52.512;-1.188;2022-10-13T19:50:20;15.48;;;4.80;;
44955;SDS011;30686;52.512;-1.188;2022-10-13T19:52:46;17.15;;;5.40;;
44955;SDS011;30686;52.512;-1.188;2022-10-13T19:55:13;11.68;;;4.90;;
44955;SDS011;30686;52.512;-1.188;2022-10-13T19:57:39;15.73;;;4.70;;
44955;SDS011;30686;52.512;-1.188;2022-10-13T20:00:05;11.13;;;5.18;;
44955;SDS011;30686;52.512;-1.188;2022-10-13T20:02:32;10.63;;;5.00;;
44955;SDS011;30686;52.512;-1.188;2022-10-13T20:04:58;9.32;;;4.55;;
44955;SDS011;30686;52.512;-1.188;2022-10-13T20:07:24;18.70;;;5.35;;
44955;SDS011;30686;52.512;-1.188;2022-10-13T20:09:50;17.73;;;4.95;;
44955;SDS011;30686;52.512;-1.188;2022-10-13T20:12:16;14.48;;;5.90;;
44955;SDS011;30686;52.512;-1.188;2022-10-13T20:14:42;12.60;;;5.10;;
44955;SDS011;30686;52.512;-1.188;2022-10-13T20:17:08;11.05;;;4.55;;
44955;SDS011;30686;52.512;-1.188;2022-10-13T20:19:35;12.27;;;5.10;;
44955;SDS011;30686;52.512;-1.188;2022-10-13T20:22:01;12.90;;;5.07;;
44955;SDS011;30686;52.512;-1.188;2022-10-13T20:24:27;14.70;;;5.38;;
44955;SDS011;30686;52.512;-1.188;2022-10-13T20:26:54;15.38;;;5.43;;
44955;SDS011;30686;52.512;-1.188;2022-10-13T20:29:20;9.50;;;5.07;;
44955;SDS011;30686;52.512;-1.188;2022-10-13T20:31:46;12.98;;;5.57;;
44955;SDS011;30686;52.512;-1.188;2022-10-13T20:34:12;17.10;;;6.20;;
44955;SDS011;30686;52.512;-1.188;2022-10-13T20:36:39;12.75;;;4.78;;
44955;SDS011;30686;52.512;-1.188;2022-10-13T20:39:05;16.55;;;6.43;;
44955;SDS011;30686;52.512;-1.188;2022-10-13T20:41:31;14.15;;;5.72;;
44955;SDS011;30686;52.512;-1.188;2022-10-13T20:43:58;13.25;;;4.70;;
44955;SDS011;30686;52.512;-1.188;2022-10-13T20:46:25;12.20;;;5.05;;
44955;SDS011;30686;52.512;-1.188;2022-10-13T20:48:52;14.35;;;5.20;;
44955;SDS011;30686;52.512;-1.188;2022-10-13T20:51:19;16.05;;;5.20;;
44955;SDS011;30686;52.512;-1.188;2022-10-13T20:53:46;13.70;;;5.35;;
44955;SDS011;30686;52.512;-1.188;2022-10-13T20:56:31;12.73;;;4.45;;
44955;SDS011;30686;52.512;-1.188;2022-10-13T20:59:00;13.30;;;5.13;;
44955;SDS011;30686;52.512;-1.188;2022-10-13T21:01:27;11.80;;;4.80;;
44955;SDS011;30686;52.512;-1.188;2022-10-13T21:03:53;10.40;;;4.43;;
44955;SDS011;30686;52.512;-1.188;2022-10-13T21:06:20;16.17;;;4.97;;
44955;SDS011;30686;52.512;-1.188;2022-10-13T21:08:47;14.32;;;5.72;;
44955;SDS011;30686;52.512;-1.188;2022-10-13T21:11:14;13.68;;;5.00;;
44955;SDS011;30686;52.512;-1.188;2022-10-13T21:13:41;14.00;;;4.47;;
44955;SDS011;30686;52.512;-1.188;2022-10-13T21:16:08;9.30;;;4.90;;
44955;SDS011;30686;52.512;-1.188;2022-10-13T21:18:35;14.48;;;4.63;;
44955;SDS011;30686;52.512;-1.188;2022-10-13T21:21:05;12.57;;;5.05;;
44955;SDS011;30686;52.512;-1.188;2022-10-13T21:23:32;14.32;;;5.43;;
44955;SDS011;30686;52.512;-1.188;2022-10-13T21:26:02;13.20;;;5.68;;
44955;SDS011;30686;52.512;-1.188;2022-10-13T21:28:28;10.70;;;4.95;;
44955;SDS011;30686;52.512;-1.188;2022-10-13T21:31:02;10.40;;;4.20;;
44955;SDS011;30686;52.512;-1.188;2022-10-13T21:33:28;9.82;;;4.55;;
44955;SDS011;30686;52.512;-1.188;2022-10-13T21:35:55;11.95;;;4.88;;
44955;SDS011;30686;52.512;-1.188;2022-10-13T21:38:21;11.48;;;4.88;;
44955;SDS011;30686;52.512;-1.188;2022-10-13T21:40:47;11.88;;;5.22;;
44955;SDS011;30686;52.512;-1.188;2022-10-13T21:43:14;12.32;;;4.70;;
44955;SDS011;30686;52.512;-1.188;2022-10-13T21:45:40;16.88;;;4.82;;
44955;SDS011;30686;52.512;-1.188;2022-10-13T21:48:06;13.30;;;5.35;;
44955;SDS011;30686;52.512;-1.188;2022-10-13T21:50:32;12.38;;;4.82;;
44955;SDS011;30686;52.512;-1.188;2022-10-13T21:52:58;11.10;;;4.80;;
44955;SDS011;30686;52.512;-1.188;2022-10-13T21:55:25;15.00;;;5.68;;
44955;SDS011;30686;52.512;-1.188;2022-10-13T21:57:51;13.80;;;5.70;;
44955;SDS011;30686;52.512;-1.188;2022-10-13T22:00:17;11.27;;;5.65;;
44955;SDS011;30686;52.512;-1.188;2022-10-13T22:02:43;16.30;;;6.15;;
44955;SDS011;30686;52.512;-1.188;2022-10-13T22:05:09;19.13;;;5.53;;
44955;SDS011;30686;52.512;-1.188;2022-10-13T22:07:35;15.75;;;5.75;;
44955;SDS011;30686;52.512;-1.188;2022-10-13T22:10:01;12.57;;;5.45;;
44955;SDS011;30686;52.512;-1.188;2022-10-13T22:12:28;14.45;;;5.47;;
44955;SDS011;30686;52.512;-1.188;2022-10-13T22:14:54;13.05;;;5.85;;
44955;SDS011;30686;52.512;-1.188;2022-10-13T22:17:20;10.70;;;4.95;;
44955;SDS011;30686;52.512;-1.188;2022-10-13T22:19:46;17.83;;;5.78;;
44955;SDS011;30686;52.512;-1.188;2022-10-13T22:22:12;18.98;;;5.45;;
44955;SDS011;30686;52.512;-1.188;2022-10-13T22:24:40;13.88;;;5.60;;
44955;SDS011;30686;52.512;-1.188;2022-10-13T22:27:06;10.63;;;5.60;;
44955;SDS011;30686;52.512;-1.188;2022-10-13T22:29:32;12.90;;;5.30;;
44955;SDS011;30686;52.512;-1.188;2022-10-13T22:31:58;15.45;;;5.40;;
44955;SDS011;30686;52.512;-1.188;2022-10-13T22:34:24;21.60;;;6.22;;
44955;SDS011;30686;52.512;-1.188;2022-10-13T22:36:51;18.38;;;5.70;;
44955;SDS011;30686;52.512;-1.188;2022-10-13T22:39:18;11.15;;;5.22;;
44955;SDS011;30686;52.512;-1.188;2022-10-13T22:41:45;13.02;;;5.40;;
44955;SDS011;30686;52.512;-1.188;2022-10-13T22:44:11;13.85;;;5.88;;
44955;SDS011;30686;52.512;-1.188;2022-10-13T22:46:39;10.32;;;4.95;;
44955;SDS011;30686;52.512;-1.188;2022-10-13T22:49:05;11.20;;;5.03;;
44955;SDS011;30686;52.512;-1.188;2022-10-13T22:51:32;13.25;;;5.15;;
44955;SDS011;30686;52.512;-1.188;2022-10-13T22:53:59;14.73;;;5.30;;
44955;SDS011;30686;52.512;-1.188;2022-10-13T22:56:28;10.68;;;4.88;;
44955;SDS011;30686;52.512;-1.188;2022-10-13T22:58:55;13.75;;;4.82;;
44955;SDS011;30686;52.512;-1.188;2022-10-13T23:01:22;9.40;;;4.50;;
44955;SDS011;30686;52.512;-1.188;2022-10-13T23:03:49;16.35;;;4.63;;
44955;SDS011;30686;52.512;-1.188;2022-10-13T23:06:16;12.32;;;5.68;;
44955;SDS011;30686;52.512;-1.188;2022-10-13T23:08:42;12.98;;;5.47;;
44955;SDS011;30686;52.512;-1.188;2022-10-13T23:11:08;11.63;;;4.90;;
44955;SDS011;30686;52.512;-1.188;2022-10-13T23:13:35;13.13;;;5.38;;
44955;SDS011;30686;52.512;-1.188;2022-10-13T23:16:05;9.55;;;4.50;;
44955;SDS011;30686;52.512;-1.188;2022-10-13T23:18:32;13.35;;;4.20;;
44955;SDS011;30686;52.512;-1.188;2022-10-13T23:20:58;12.73;;;5.00;;
44955;SDS011;30686;52.512;-1.188;2022-10-13T23:23:28;10.07;;;4.38;;
44955;SDS011;30686;52.512;-1.188;2022-10-13T23:25:54;14.75;;;4.20;;
44955;SDS011;30686;52.512;-1.188;2022-10-13T23:28:20;13.60;;;4.93;;
44955;SDS011;30686;52.512;-1.188;2022-10-13T23:30:46;17.70;;;6.55;;
44955;SDS011;30686;52.512;-1.188;2022-10-13T23:33:12;13.90;;;4.45;;
44955;SDS011;30686;52.512;-1.188;2022-10-13T23:35:39;12.38;;;4.75;;
44955;SDS011;30686;52.512;-1.188;2022-10-13T23:38:05;13.32;;;5.28;;
44955;SDS011;30686;52.512;-1.188;2022-10-13T23:40:32;10.63;;;4.40;;
44955;SDS011;30686;52.512;-1.188;2022-10-13T23:42:58;16.73;;;4.88;;
44955;SDS011;30686;52.512;-1.188;2022-10-13T23:45:24;16.42;;;4.88;;
44955;SDS011;30686;52.512;-1.188;2022-10-13T23:47:51;14.00;;;5.28;;
44955;SDS011;30686;52.512;-1.188;2022-10-13T23:50:17;13.93;;;4.53;;
44955;SDS011;30686;52.512;-1.188;2022-10-13T23:52:43;17.58;;;5.32;;
44955;SDS011;30686;52.512;-1.188;2022-10-13T23:55:09;16.27;;;4.82;;
44955;SDS011;30686;52.512;-1.188;2022-10-13T23:57:36;12.65;;;4.85;;
